Time;durP1;ratioP1;P1;durP2;ratioP2;P2;SDS_P1;SDS_P2;PMS_P1;PMS_P2;Temp;Humidity;BMP_temperature;BMP_pressure;BME280_temperature;BME280_humidity;BME280_pressure;Samples;Min_cycle;Max_cycle;Signal;HPM_P1;HPM_P2
2023/11/23 00:02:05;;;;;;;0.00;0.00;;;;;;;1.08;68.37;101594.50;15657432;28;20045;-51
2023/11/23 00:09:40;;;;;;;0.35;0.35;;;;;;;0.89;68.69;101579.34;15675564;28;20041;-56
2023/11/23 00:17:15;;;;;;;0.00;0.00;;;;;;;0.99;68.41;101571.47;15656955;28;20033;-50
2023/11/23 00:24:50;;;;;;;0.30;0.30;;;;;;;1.07;67.89;101534.66;15669539;28;20127;-48
2023/11/23 00:32:24;;;;;;;0.57;0.57;;;;;;;1.25;67.81;101504.00;15673695;28;20121;-54
2023/11/23 00:39:59;;;;;;;0.10;0.10;;;;;;;1.24;68.37;101459.19;15656009;28;20403;-53
2023/11/23 00:47:37;;;;;;;0.00;0.00;;;;;;;1.16;68.88;101443.97;15656412;28;20634;-53
2023/11/23 00:55:13;;;;;;;0.28;0.22;;;;;;;1.26;67.63;101436.94;15663280;28;20055;-51
2023/11/23 01:02:47;;;;;;;0.13;0.13;;;;;;;1.44;66.60;101412.50;15655464;28;20139;-55
2023/11/23 01:10:24;;;;;;;0.25;0.25;;;;;;;1.52;67.55;101418.78;15655535;28;20071;-52
2023/11/23 01:17:58;;;;;;;0.10;0.10;;;;;;;1.79;66.10;101414.69;15654962;28;20376;-51
2023/11/23 01:25:33;;;;;;;0.03;0.03;;;;;;;1.66;67.08;101406.16;15654334;28;20044;-50
2023/11/23 01:33:07;;;;;;;0.00;0.00;;;;;;;1.90;66.45;101384.59;15671447;28;20108;-52
2023/11/23 01:40:42;;;;;;;0.00;0.00;;;;;;;2.12;65.79;101383.50;15671931;28;20065;-54
2023/11/23 01:48:16;;;;;;;0.10;0.08;;;;;;;2.15;66.17;101383.25;15652760;28;20070;-52
2023/11/23 01:55:52;;;;;;;0.40;0.40;;;;;;;2.17;65.71;101371.50;15665138;28;20041;-51
2023/11/23 02:03:25;;;;;;;0.00;0.00;;;;;;;2.36;66.38;101346.00;15665049;28;20526;-51
2023/11/23 02:11:00;;;;;;;0.00;0.00;;;;;;;2.22;66.06;101318.13;15665631;28;20463;-52
2023/11/23 02:18:38;;;;;;;0.25;0.25;;;;;;;2.30;67.42;101305.84;15664837;28;20041;-54
2023/11/23 02:26:13;;;;;;;0.00;0.00;;;;;;;2.41;67.00;101288.94;15664692;28;20548;-53
2023/11/23 02:33:46;;;;;;;0.13;0.13;;;;;;;2.48;66.63;101274.16;15647158;28;20040;-51
2023/11/23 02:41:21;;;;;;;0.25;0.25;;;;;;;2.87;66.61;101260.72;15680864;28;20056;-53
2023/11/23 02:48:55;;;;;;;0.00;0.00;;;;;;;2.89;66.53;101272.03;15663147;28;20041;-52
2023/11/23 02:56:30;;;;;;;0.00;0.00;;;;;;;3.01;66.43;101264.72;15665873;28;20037;-53
2023/11/23 03:04:05;;;;;;;0.00;0.00;;;;;;;3.21;66.39;101252.16;15679174;28;20506;-51
2023/11/23 03:11:42;;;;;;;0.05;0.05;;;;;;;3.07;67.55;101256.16;15662309;28;20556;-52
2023/11/23 03:19:15;;;;;;;0.00;0.00;;;;;;;3.28;67.28;101246.13;15661274;28;20656;-52
2023/11/23 03:26:50;;;;;;;0.20;0.20;;;;;;;3.26;67.92;101220.72;15660717;28;20573;-48
2023/11/23 03:34:24;;;;;;;0.00;0.00;;;;;;;3.57;68.12;101215.88;15661969;28;20361;-49
2023/11/23 03:42:00;;;;;;;0.70;0.70;;;;;;;3.68;68.30;101214.78;15659495;28;20353;-52
2023/11/23 03:49:35;;;;;;;0.03;0.03;;;;;;;3.84;68.42;101204.31;15676986;28;20060;-50
2023/11/23 03:57:12;;;;;;;0.00;0.00;;;;;;;3.80;69.25;101200.28;15664850;28;20392;-50
2023/11/23 04:04:46;;;;;;;0.00;0.00;;;;;;;3.97;68.83;101178.19;15675450;28;20499;-51
2023/11/23 04:12:21;;;;;;;;;;;;;;;3.97;68.48;101182.66;15658083;28;20037;-49
2023/11/23 04:19:54;;;;;;;1.77;0.40;;;;;;;4.14;68.52;101170.28;15675649;28;20387;-53
2023/11/23 04:27:31;;;;;;;1.00;0.38;;;;;;;4.23;68.74;101169.34;15656907;28;20087;-50
2023/11/23 04:35:06;;;;;;;0.10;0.10;;;;;;;4.43;69.05;101152.19;15674380;28;20075;-54
2023/11/23 04:42:43;;;;;;;0.03;0.03;;;;;;;4.38;69.53;101143.00;15657943;28;20052;-53
2023/11/23 04:50:17;;;;;;;0.30;0.30;;;;;;;4.40;70.58;101139.19;15674302;28;20550;-52
2023/11/23 04:57:51;;;;;;;0.05;0.05;;;;;;;4.42;71.49;101131.06;15658141;28;20047;-51
2023/11/23 05:05:25;;;;;;;0.00;0.00;;;;;;;4.96;71.29;101134.22;15672865;28;20091;-52
2023/11/23 05:13:01;;;;;;;0.00;0.00;;;;;;;5.03;72.30;101113.91;15656159;28;20048;-51
2023/11/23 05:20:35;;;;;;;0.00;0.00;;;;;;;5.20;72.78;101107.63;15672753;28;20525;-48
2023/11/23 05:28:12;;;;;;;0.10;0.10;;;;;;;5.01;74.81;101100.78;15681802;28;20037;-51
2023/11/23 05:35:45;;;;;;;0.10;0.10;;;;;;;5.70;73.27;101111.09;15685806;28;20043;-52
2023/11/23 05:43:21;;;;;;;1.00;1.00;;;;;;;5.53;75.12;101097.78;15667226;28;20033;-49
2023/11/23 05:50:54;;;;;;;0.10;0.10;;;;;;;5.48;75.99;101099.28;15684092;28;20052;-48
2023/11/23 05:58:32;;;;;;;0.00;0.00;;;;;;;5.58;75.67;101092.78;15666084;28;20037;-53
2023/11/23 06:06:19;;;;;;;0.38;0.22;;;;;;;5.61;74.68;101001.91;15687731;28;20032;-48
2023/11/23 06:13:54;;;;;;;0.00;0.00;;;;;;;5.59;77.50;101059.81;15685152;28;20404;-53
2023/11/23 06:21:27;;;;;;;0.08;0.08;;;;;;;5.77;77.71;101051.63;15682895;28;20075;-49
2023/11/23 06:29:03;;;;;;;0.03;0.03;;;;;;;6.11;76.54;101071.88;15662081;28;20136;-49
2023/11/23 06:36:38;;;;;;;0.00;0.00;;;;;;;6.07;75.60;101054.56;15678532;28;20175;-51
2023/11/23 06:44:13;;;;;;;0.22;0.20;;;;;;;5.75;77.59;101055.47;15678700;28;20052;-52
2023/11/23 06:51:46;;;;;;;0.00;0.00;;;;;;;5.60;78.84;101040.19;15678341;28;20507;-50
2023/11/23 06:59:21;;;;;;;0.08;0.05;;;;;;;5.70;78.51;101037.34;15684695;28;20091;-51
2023/11/23 07:06:55;;;;;;;0.10;0.10;;;;;;;5.60;78.56;101024.22;15658328;28;20037;-49
2023/11/23 07:14:30;;;;;;;0.20;0.20;;;;;;;5.51;79.74;101014.59;15640555;28;20040;-47
2023/11/23 07:22:04;;;;;;;0.00;0.00;;;;;;;5.37;80.58;101007.31;15656848;28;20069;-51
2023/11/23 07:29:39;;;;;;;0.20;0.20;;;;;;;5.69;79.63;101009.06;15648384;28;1108139;-50
2023/11/23 07:37:14;;;;;;;0.00;0.00;;;;;;;5.52;80.37;100973.66;15660987;28;20040;-48
2023/11/23 07:44:49;;;;;;;0.55;0.55;;;;;;;5.61;80.88;100977.13;15660186;28;20037;-50
2023/11/23 07:52:22;;;;;;;0.10;0.10;;;;;;;5.57;81.48;100962.47;15657940;28;20052;-51
2023/11/23 08:00:01;;;;;;;0.10;0.10;;;;;;;5.69;81.56;100947.81;15683140;28;20095;-53
2023/11/23 08:07:46;;;;;;;0.32;0.32;;;;;;;6.01;81.35;100948.66;15656471;28;20041;-52
2023/11/23 08:15:25;;;;;;;0.03;0.03;;;;;;;6.03;80.91;100931.50;15674857;28;20048;-54
2023/11/23 08:22:58;;;;;;;0.10;0.10;;;;;;;6.15;80.70;100921.25;15674297;28;20551;-51
2023/11/23 08:30:35;;;;;;;0.05;0.03;;;;;;;6.28;80.30;100916.16;15672569;28;20052;-52
2023/11/23 08:38:09;;;;;;;0.00;0.00;;;;;;;6.41;80.02;100904.09;15674471;28;20475;-54
2023/11/23 08:45:43;;;;;;;0.70;0.70;;;;;;;6.47;79.55;100892.69;15674835;28;20495;-51
2023/11/23 08:53:16;;;;;;;0.00;0.00;;;;;;;6.50;78.98;100871.84;15680382;28;20044;-55
2023/11/23 09:00:51;;;;;;;0.20;0.20;;;;;;;6.49;79.08;100864.03;15672972;28;20412;-51
2023/11/23 09:18:08;;;;;;;0.00;0.00;;;;;;;6.66;79.27;100836.16;15672850;28;20067;-52
2023/11/23 10:30:27;;;;;;;6.03;1.55;;;;;;;7.01;80.65;100703.06;15681268;28;21507;-55
2023/11/23 10:38:02;;;;;;;0.70;0.63;;;;;;;7.01;80.96;100687.84;15646083;28;20044;-53
2023/11/23 10:45:40;;;;;;;1.90;0.52;;;;;;;7.14;81.35;100668.50;15682693;28;20148;-54
2023/11/23 10:53:16;;;;;;;0.38;0.38;;;;;;;7.17;81.85;100641.41;15684280;28;20234;-54
2023/11/23 11:00:52;;;;;;;0.00;0.00;;;;;;;7.18;83.38;100642.25;15655939;28;20504;-52
2023/11/23 11:08:30;;;;;;;0.10;0.10;;;;;;;7.37;82.83;100613.06;15676195;28;20065;-52
2023/11/23 11:16:09;;;;;;;2.38;0.65;;;;;;;7.34;83.26;100594.75;15681089;28;20609;-52
2023/11/23 11:23:44;;;;;;;0.35;0.30;;;;;;;7.48;83.24;100590.34;15680086;28;20092;-55
2023/11/23 11:31:28;;;;;;;0.60;0.50;;;;;;;7.56;83.88;100594.75;15663210;28;20065;-52
2023/11/23 11:39:05;;;;;;;0.10;0.10;;;;;;;7.40;84.15;100571.78;15680312;28;20068;-50
2023/11/23 11:46:41;;;;;;;0.40;0.25;;;;;;;7.40;84.73;100566.47;15645536;28;20575;-52
2023/11/23 11:54:19;;;;;;;0.30;0.30;;;;;;;7.55;83.80;100542.31;15682094;28;20139;-60
2023/11/23 12:01:54;;;;;;;0.08;0.08;;;;;;;7.43;84.82;100538.56;15660798;28;20045;-52
2023/11/23 12:09:28;;;;;;;0.00;0.00;;;;;;;7.53;84.92;100515.00;15659957;28;20132;-55
2023/11/23 12:17:10;;;;;;;0.10;0.10;;;;;;;7.46;85.78;100512.28;15676649;28;20048;-54
2023/11/23 12:24:43;;;;;;;0.17;0.17;;;;;;;7.54;85.27;100484.59;15673997;28;20049;-53
2023/11/23 12:32:18;;;;;;;0.00;0.00;;;;;;;7.65;84.92;100490.22;15652294;28;20443;-52
2023/11/23 12:39:54;;;;;;;0.10;0.10;;;;;;;7.87;84.85;100476.75;15673112;28;20048;-51
2023/11/23 12:47:29;;;;;;;0.30;0.30;;;;;;;8.07;84.65;100448.25;15666025;28;20053;-53
2023/11/23 12:55:04;;;;;;;0.03;0.03;;;;;;;8.18;85.90;100436.97;15672590;28;20424;-52
2023/11/23 13:02:39;;;;;;;0.00;0.00;;;;;;;8.96;84.06;100431.09;15669500;28;20049;-53
2023/11/23 13:10:16;;;;;;;0.00;0.00;;;;;;;9.19;82.69;100415.44;15653407;28;20299;-54
2023/11/23 13:17:52;;;;;;;0.10;0.10;;;;;;;9.30;82.18;100397.88;15671378;28;20037;-51
2023/11/23 13:25:26;;;;;;;1.95;0.93;;;;;;;9.47;81.89;100378.69;15646215;28;20037;-53
2023/11/23 13:33:04;;;;;;;0.00;0.00;;;;;;;9.40;82.03;100376.00;15670895;28;20591;-54
2023/11/23 13:40:38;;;;;;;0.32;0.32;;;;;;;9.43;81.66;100354.97;15679651;28;20045;-53
2023/11/23 13:48:15;;;;;;;0.38;0.20;;;;;;;9.58;81.47;100343.19;15680686;28;20143;-56
2023/11/23 13:55:50;;;;;;;0.20;0.20;;;;;;;9.60;81.72;100323.16;15709014;22;20498;-49
2023/11/23 14:03:25;;;;;;;0.38;0.32;;;;;;;9.59;81.82;100300.06;15674736;28;20072;-48
2023/11/23 14:10:58;;;;;;;0.47;0.47;;;;;;;9.61;81.94;100284.63;15667333;28;20037;-50
2023/11/23 14:18:33;;;;;;;;;;;;;;;9.69;81.88;100265.59;15682500;28;20074;-50
2023/11/23 14:26:08;;;;;;;0.10;0.10;;;;;;;9.79;81.34;100250.91;15682165;28;20179;-50
2023/11/23 14:33:42;;;;;;;0.55;0.52;;;;;;;9.82;81.21;100258.50;15680777;28;20041;-51
2023/11/23 14:41:19;;;;;;;2.50;0.73;;;;;;;9.87;80.81;100246.09;15662704;28;20492;-50
2023/11/23 14:49:01;;;;;;;0.00;0.00;;;;;;;9.90;80.67;100250.22;15646945;28;20438;-49
2023/11/23 14:56:35;;;;;;;0.00;0.00;;;;;;;9.99;81.22;100222.09;15683763;28;20064;-51
2023/11/23 15:04:11;;;;;;;0.32;0.32;;;;;;;9.69;82.93;100187.88;15677651;28;20267;-49
2023/11/23 15:11:48;;;;;;;2.58;0.63;;;;;;;9.61;83.70;100172.09;15683386;28;20051;-53
2023/11/23 15:19:23;;;;;;;0.20;0.20;;;;;;;9.69;82.66;100150.34;15677563;28;20167;-51
2023/11/23 15:26:57;;;;;;;0.30;0.30;;;;;;;10.06;80.80;100126.31;15677399;28;20079;-50
2023/11/23 15:34:33;;;;;;;1.20;1.10;;;;;;;9.90;80.84;100100.09;15680140;28;20196;-49
2023/11/23 15:42:10;;;;;;;2.25;1.23;;;;;;;9.88;81.41;100107.53;15628117;28;20037;-53
2023/11/23 15:49:47;;;;;;;0.63;0.63;;;;;;;9.89;80.89;100055.56;15678705;28;20132;-50
2023/11/23 15:57:20;;;;;;;1.45;0.73;;;;;;;10.07;80.05;100068.13;15661092;28;20162;-50
2023/11/23 16:04:55;;;;;;;;;;;;;;;10.11;79.49;100019.19;15677920;28;20036;-56
2023/11/23 16:12:32;;;;;;;0.03;0.03;;;;;;;10.17;79.29;100014.81;15676211;28;19920;-53
2023/11/23 16:20:10;;;;;;;0.00;0.00;;;;;;;10.18;80.00;99995.00;15676095;28;20048;-55
2023/11/23 16:27:44;;;;;;;0.10;0.10;;;;;;;10.25;79.22;99968.13;15674644;28;20605;-53
2023/11/23 16:35:19;;;;;;;0.00;0.00;;;;;;;10.34;78.77;99942.63;15664192;28;20045;-51
2023/11/23 16:42:53;;;;;;;0.08;0.08;;;;;;;10.42;78.69;99942.28;15676327;28;20068;-58
2023/11/23 16:50:29;;;;;;;;;;;;;;;10.39;78.82;99935.50;15676126;28;20073;-51
2023/11/23 16:58:04;;;;;;;0.38;0.38;;;;;;;10.48;78.41;99891.22;15678487;28;20453;-50
2023/11/23 17:05:40;;;;;;;0.57;0.57;;;;;;;10.55;78.19;99877.72;15676072;28;20043;-53
2023/11/23 17:13:16;;;;;;;0.38;0.35;;;;;;;10.58;78.13;99854.94;15659852;28;20041;-50
2023/11/23 17:20:52;;;;;;;0.03;0.03;;;;;;;10.61;78.08;99833.84;15674861;28;20044;-52
2023/11/23 17:28:26;;;;;;;0.45;0.45;;;;;;;10.71;78.08;99825.19;15658678;28;20418;-56
2023/11/23 17:36:05;;;;;;;0.00;0.00;;;;;;;10.75;78.07;99818.31;15656282;28;20052;-52
2023/11/23 17:43:38;;;;;;;0.22;0.22;;;;;;;10.69;78.74;99814.72;15674491;28;20402;-49
2023/11/23 17:51:13;;;;;;;;;;;;;;;10.72;78.56;99798.16;15656731;28;20052;-48
2023/11/23 17:58:48;;;;;;;0.00;0.00;;;;;;;10.69;79.05;99795.91;15657624;28;19920;-50
2023/11/23 18:06:23;;;;;;;0.00;0.00;;;;;;;10.71;79.42;99742.00;15671143;28;20037;-54
2023/11/23 18:13:56;;;;;;;0.00;0.00;;;;;;;10.58;80.50;99756.47;15670746;28;20049;-51
2023/11/23 18:21:31;;;;;;;;;;;;;;;10.40;82.58;99732.47;15660848;28;20128;-53
2023/11/23 18:29:08;;;;;;;0.00;0.00;;;;;;;10.20;84.65;99724.72;15671007;28;19920;-53
2023/11/23 18:36:45;;;;;;;0.63;0.22;;;;;;;10.06;86.83;99707.22;15681399;28;20063;-51
2023/11/23 18:44:21;;;;;;;0.05;0.05;;;;;;;9.97;87.27;99694.16;15680665;28;20557;-52
2023/11/23 18:51:57;;;;;;;0.35;0.35;;;;;;;9.90;87.87;99671.22;15655582;28;20518;-56
2023/11/23 18:59:30;;;;;;;1.50;0.43;;;;;;;9.97;88.17;99682.63;15678618;28;20037;-53
2023/11/23 19:07:05;;;;;;;0.38;0.20;;;;;;;10.01;87.93;99651.63;15661237;28;20135;-54
2023/11/23 19:14:39;;;;;;;0.90;0.52;;;;;;;10.00;88.24;99650.00;15678489;28;20037;-52
2023/11/23 19:22:14;;;;;;;1.20;0.55;;;;;;;10.08;86.83;99635.44;15660001;28;20462;-56
2023/11/23 19:29:48;;;;;;;0.77;0.77;;;;;;;10.12;86.67;99641.97;15678705;28;20049;-54
2023/11/23 19:37:23;;;;;;;0.00;0.00;;;;;;;10.12;86.00;99617.84;15676378;28;20036;-50
2023/11/23 19:45:00;;;;;;;0.00;0.00;;;;;;;10.20;88.00;99661.19;15658805;28;20144;-51
2023/11/23 19:52:43;;;;;;;0.00;0.00;;;;;;;9.94;87.66;99675.06;15676367;28;20049;-52
2023/11/23 20:00:17;;;;;;;0.00;0.00;;;;;;;10.09;87.01;99704.91;15682807;23;20051;-51
2023/11/23 20:07:53;;;;;;;0.00;0.00;;;;;;;9.31;86.89;99729.19;15655956;28;20061;-54
2023/11/23 20:15:28;;;;;;;0.00;0.00;;;;;;;9.32;86.30;99715.56;15652068;28;20618;-52
2023/11/23 20:23:10;;;;;;;0.00;0.00;;;;;;;9.06;85.55;99730.13;15653300;28;20053;-48
2023/11/23 20:30:43;;;;;;;0.00;0.00;;;;;;;8.91;85.36;99719.00;15627936;28;20116;-47
2023/11/23 20:38:18;;;;;;;0.00;0.00;;;;;;;8.88;84.45;99738.97;15638607;28;20086;-50
2023/11/23 20:45:51;;;;;;;0.00;0.00;;;;;;;8.53;85.21;99725.34;15672194;28;20059;-47
2023/11/23 20:53:26;;;;;;;0.75;0.73;;;;;;;8.32;84.14;99739.13;15656815;28;20488;-51
2023/11/23 21:01:00;;;;;;;0.00;0.00;;;;;;;8.06;83.30;99721.47;15671231;28;20060;-48
2023/11/23 21:08:36;;;;;;;1.45;0.95;;;;;;;8.24;81.60;99745.56;15670630;28;20037;-51
2023/11/23 21:16:12;;;;;;;0.00;0.00;;;;;;;8.27;82.08;99763.03;15669540;28;20167;-49
2023/11/23 21:23:47;;;;;;;0.00;0.00;;;;;;;7.82;83.96;99763.16;15669846;28;20068;-52
2023/11/23 21:31:20;;;;;;;0.00;0.00;;;;;;;7.62;82.96;99745.41;15670293;28;20104;-54
2023/11/23 21:38:55;;;;;;;0.00;0.00;;;;;;;7.59;81.93;99740.50;15670222;28;20511;-49
2023/11/23 21:46:29;;;;;;;0.00;0.00;;;;;;;7.72;80.30;99722.75;15659925;28;20159;-48
2023/11/23 21:54:05;;;;;;;0.03;0.03;;;;;;;7.73;78.92;99749.25;15673205;28;20582;-53
2023/11/23 22:01:38;;;;;;;0.00;0.00;;;;;;;7.61;78.87;99743.78;15651720;28;20041;-53
2023/11/23 22:09:13;;;;;;;0.10;0.10;;;;;;;7.61;78.13;99693.06;15675373;28;20466;-47
2023/11/23 22:16:47;;;;;;;0.10;0.10;;;;;;;7.69;77.51;99713.31;15665606;28;20124;-53
2023/11/23 22:24:23;;;;;;;0.00;0.00;;;;;;;7.72;77.37;99696.06;15661598;28;20454;-52
2023/11/23 22:31:57;;;;;;;0.00;0.00;;;;;;;7.51;77.45;99706.06;15665813;28;20072;-53
2023/11/23 22:39:33;;;;;;;0.00;0.00;;;;;;;7.43;76.13;99681.47;15673253;28;20048;-53
2023/11/23 22:47:08;;;;;;;0.00;0.00;;;;;;;7.53;75.61;99698.66;15678308;28;20066;-53
2023/11/23 22:54:43;;;;;;;0.00;0.00;;;;;;;7.22;77.23;99703.97;15678219;28;20045;-54
2023/11/23 23:02:17;;;;;;;0.65;0.32;;;;;;;7.31;76.83;99708.03;15677437;28;20045;-51
2023/11/23 23:09:52;;;;;;;0.43;0.43;;;;;;;7.40;75.25;99712.06;15677644;28;20037;-49
2023/11/23 23:17:27;;;;;;;0.00;0.00;;;;;;;7.30;74.70;99706.41;15644622;28;20495;-50
2023/11/23 23:25:02;;;;;;;0.00;0.00;;;;;;;7.15;73.82;99704.81;15676753;28;20067;-49
2023/11/23 23:32:40;;;;;;;0.00;0.00;;;;;;;7.26;72.03;99695.31;15663090;28;20052;-50
2023/11/23 23:40:15;;;;;;;7.68;0.47;;;;;;;7.23;71.40;99686.91;15676520;28;20405;-47
2023/11/23 23:47:49;;;;;;;0.20;0.20;;;;;;;7.04;71.10;99689.50;15641452;28;20148;-47
2023/11/23 23:55:25;;;;;;;0.00;0.00;;;;;;;7.09;70.19;99688.88;15678140;28;20083;-47
